Time;durP1;ratioP1;P1;durP2;ratioP2;P2;SDS_P1;SDS_P2;PMS_P1;PMS_P2;Temp;Humidity;BMP_temperature;BMP_pressure;BME280_temperature;BME280_humidity;BME280_pressure;Samples;Min_cycle;Max_cycle;Signal;HPM_P1;HPM_P2
2022/03/14 00:00:52;;;;;;;6.88;2.70;;;;;;;;;;5050328;28;20020;-71
2022/03/14 00:03:20;;;;;;;4.88;2.75;;;;;;;;;;5032467;28;20421;-71
2022/03/14 00:05:45;;;;;;;4.22;2.50;;;;;;;;;;5050317;28;20082;-71
2022/03/14 00:08:13;;;;;;;4.07;2.53;;;;;;;;;;5050337;28;20028;-71
2022/03/14 00:10:38;;;;;;;5.35;2.92;;;;;;;;;;5049514;28;20032;-71
2022/03/14 00:13:07;;;;;;;5.88;3.17;;;;;;;;;;5031954;28;20033;-71
2022/03/14 00:15:33;;;;;;;5.57;3.22;;;;;;;;;;5049922;28;20021;-71
2022/03/14 00:18:00;;;;;;;8.65;2.70;;;;;;;;;;5049682;28;20017;-71
2022/03/14 00:20:25;;;;;;;4.85;2.88;;;;;;;;;;5049534;28;20053;-71
2022/03/14 00:22:51;;;;;;;6.18;3.28;;;;;;;;;;5049925;28;20071;-71
2022/03/14 00:25:16;;;;;;;6.07;3.13;;;;;;;;;;5049527;28;20021;-71
2022/03/14 00:27:42;;;;;;;5.80;3.23;;;;;;;;;;5050226;28;20053;-71
2022/03/14 00:30:08;;;;;;;7.63;2.75;;;;;;;;;;5049186;28;20274;-71
2022/03/14 00:32:37;;;;;;;5.32;3.25;;;;;;;;;;5051991;28;20623;-70
2022/03/14 00:35:02;;;;;;;5.30;3.05;;;;;;;;;;5034005;28;20074;-71
2022/03/14 00:37:28;;;;;;;6.80;3.10;;;;;;;;;;5052778;28;20021;-71
2022/03/14 00:39:53;;;;;;;5.82;3.42;;;;;;;;;;5052032;28;20381;-71
2022/03/14 00:42:21;;;;;;;5.35;3.13;;;;;;;;;;5051910;28;20151;-71
2022/03/14 00:44:46;;;;;;;5.85;3.15;;;;;;;;;;5052690;28;20039;-70
2022/03/14 00:47:12;;;;;;;5.07;3.15;;;;;;;;;;5052145;28;20032;-71
2022/03/14 00:49:37;;;;;;;4.85;2.85;;;;;;;;;;5053278;28;20048;-71
2022/03/14 00:52:03;;;;;;;5.55;3.00;;;;;;;;;;5056220;28;20075;-71
2022/03/14 00:54:28;;;;;;;4.93;3.08;;;;;;;;;;5056424;28;20033;-71
2022/03/14 00:56:53;;;;;;;4.63;2.77;;;;;;;;;;5055721;28;20104;-70
2022/03/14 00:59:20;;;;;;;6.87;3.20;;;;;;;;;;5054196;28;20267;-70
2022/03/14 01:01:45;;;;;;;4.38;2.33;;;;;;;;;;5041888;28;20347;-71
2022/03/14 01:04:10;;;;;;;6.07;3.13;;;;;;;;;;5056846;28;20053;-71
2022/03/14 01:06:36;;;;;;;6.15;3.13;;;;;;;;;;5055242;28;20053;-71
2022/03/14 01:09:02;;;;;;;5.55;3.20;;;;;;;;;;5055125;28;20028;-71
2022/03/14 01:11:27;;;;;;;7.10;3.58;;;;;;;;;;5055136;28;20033;-71
2022/03/14 01:13:52;;;;;;;5.50;2.63;;;;;;;;;;5055581;28;20095;-71
2022/03/14 01:16:18;;;;;;;6.45;2.55;;;;;;;;;;5045020;28;20622;-71
2022/03/14 01:18:43;;;;;;;4.65;3.03;;;;;;;;;;5050961;28;20027;-70
2022/03/14 01:21:08;;;;;;;9.50;2.80;;;;;;;;;;5054584;28;20032;-71
2022/03/14 01:23:33;;;;;;;5.10;3.07;;;;;;;;;;5055341;28;20268;-69
2022/03/14 01:25:58;;;;;;;4.87;2.33;;;;;;;;;;5053941;28;20786;-71
2022/03/14 01:28:23;;;;;;;4.97;2.50;;;;;;;;;;5053970;28;20268;-70
2022/03/14 01:30:49;;;;;;;5.32;2.88;;;;;;;;;;5052849;28;20102;-71
2022/03/14 01:33:14;;;;;;;5.37;3.23;;;;;;;;;;5053436;28;20485;-70
2022/03/14 01:35:40;;;;;;;5.53;2.53;;;;;;;;;;5053215;28;20279;-71
2022/03/14 01:38:06;;;;;;;5.95;3.40;;;;;;;;;;5053279;28;20425;-71
2022/03/14 01:40:31;;;;;;;5.55;2.75;;;;;;;;;;5053882;28;20027;-71
2022/03/14 01:42:56;;;;;;;4.57;2.60;;;;;;;;;;5054191;28;20044;-71
2022/03/14 01:45:23;;;;;;;5.93;2.92;;;;;;;;;;5054557;28;20032;-71
2022/03/14 01:47:48;;;;;;;7.93;3.05;;;;;;;;;;5053699;28;20020;-70
2022/03/14 01:50:15;;;;;;;6.03;3.42;;;;;;;;;;5053288;28;20029;-71
2022/03/14 01:52:40;;;;;;;5.28;2.72;;;;;;;;;;5054808;28;20027;-71
2022/03/14 01:55:06;;;;;;;6.55;3.33;;;;;;;;;;5064832;28;20025;-70
2022/03/14 01:57:32;;;;;;;3.80;2.45;;;;;;;;;;5053157;28;20099;-71
2022/03/14 01:59:58;;;;;;;6.50;3.40;;;;;;;;;;5053389;28;20350;-71
2022/03/14 02:02:23;;;;;;;4.95;3.28;;;;;;;;;;5053459;28;20083;-72
2022/03/14 02:04:48;;;;;;;5.63;3.28;;;;;;;;;;5053139;28;20040;-71
2022/03/14 02:07:14;;;;;;;3.97;2.10;;;;;;;;;;5052790;28;20120;-71
2022/03/14 02:09:39;;;;;;;4.78;2.75;;;;;;;;;;5052446;28;20278;-70
2022/03/14 02:12:04;;;;;;;7.25;3.05;;;;;;;;;;5052272;28;20116;-72
2022/03/14 02:14:30;;;;;;;11.35;2.90;;;;;;;;;;5052606;28;20020;-72
2022/03/14 02:16:55;;;;;;;8.90;4.35;;;;;;;;;;5051809;28;20115;-70
2022/03/14 02:19:21;;;;;;;7.32;3.35;;;;;;;;;;5051504;28;20033;-72
2022/03/14 02:21:46;;;;;;;7.95;3.72;;;;;;;;;;5051285;28;20025;-71
2022/03/14 02:24:11;;;;;;;8.40;3.50;;;;;;;;;;5034145;28;20453;-72
2022/03/14 02:26:39;;;;;;;6.50;3.03;;;;;;;;;;5051677;28;20044;-71
2022/03/14 02:29:04;;;;;;;8.85;4.93;;;;;;;;;;5051484;28;20047;-71
2022/03/14 02:31:30;;;;;;;7.68;4.40;;;;;;;;;;5051693;28;20439;-71
2022/03/14 02:33:55;;;;;;;8.68;4.00;;;;;;;;;;5051605;28;20032;-71
2022/03/14 02:36:20;;;;;;;2.33;1.50;;;;;;;;;;5051475;28;20063;-71
2022/03/14 02:38:45;;;;;;;8.23;4.32;;;;;;;;;;5051000;28;20267;-71
2022/03/14 02:41:11;;;;;;;5.53;3.22;;;;;;;;;;5033534;28;20373;-71
2022/03/14 02:43:36;;;;;;;7.25;4.10;;;;;;;;;;5051834;28;20151;-70
2022/03/14 02:46:01;;;;;;;6.93;4.03;;;;;;;;;;5051076;28;20052;-69
2022/03/14 02:48:27;;;;;;;7.57;4.18;;;;;;;;;;5033121;28;20265;-70
2022/03/14 02:50:53;;;;;;;8.93;4.15;;;;;;;;;;5049601;28;20029;-70
2022/03/14 02:53:19;;;;;;;8.52;4.90;;;;;;;;;;5051269;28;20036;-70
2022/03/14 02:55:44;;;;;;;8.85;4.68;;;;;;;;;;5051192;28;20024;-69
2022/03/14 02:58:10;;;;;;;8.00;3.95;;;;;;;;;;5033546;28;20382;-70
2022/03/14 03:00:36;;;;;;;12.82;4.97;;;;;;;;;;5050601;28;20099;-70
2022/03/14 03:03:02;;;;;;;11.23;5.03;;;;;;;;;;5051568;28;20025;-70
2022/03/14 03:05:30;;;;;;;7.30;3.22;;;;;;;;;;5051624;28;20017;-70
2022/03/14 03:07:59;;;;;;;8.60;4.15;;;;;;;;;;5050986;28;20078;-70
2022/03/14 03:10:24;;;;;;;5.82;3.15;;;;;;;;;;5050896;28;20418;-70
2022/03/14 03:12:50;;;;;;;10.90;4.10;;;;;;;;;;5050671;28;20076;-70
2022/03/14 03:15:15;;;;;;;13.45;6.55;;;;;;;;;;5051308;28;20099;-70
2022/03/14 03:17:40;;;;;;;9.85;2.53;;;;;;;;;;5050288;28;20071;-69
2022/03/14 03:20:06;;;;;;;10.05;3.42;;;;;;;;;;5050486;28;20021;-70
2022/03/14 03:22:31;;;;;;;10.88;5.22;;;;;;;;;;5042150;28;20063;-69
2022/03/14 03:24:56;;;;;;;7.57;3.72;;;;;;;;;;5031658;28;20029;-69
2022/03/14 03:27:22;;;;;;;12.60;4.10;;;;;;;;;;5050439;28;20029;-69
2022/03/14 03:29:47;;;;;;;4.28;2.28;;;;;;;;;;5050005;28;20104;-69
2022/03/14 03:32:12;;;;;;;3.42;2.33;;;;;;;;;;5032798;28;20052;-69
2022/03/14 03:34:37;;;;;;;9.80;3.53;;;;;;;;;;5050110;28;20052;-69
2022/03/14 03:37:03;;;;;;;10.13;3.87;;;;;;;;;;5047968;28;20017;-69
2022/03/14 03:39:30;;;;;;;6.07;3.08;;;;;;;;;;5050438;28;20465;-69
2022/03/14 03:41:55;;;;;;;13.30;6.13;;;;;;;;;;5050053;28;20091;-69
2022/03/14 03:44:20;;;;;;;18.27;5.80;;;;;;;;;;5032598;28;20014;-69
2022/03/14 03:46:46;;;;;;;9.93;4.35;;;;;;;;;;5049942;28;20068;-69
2022/03/14 03:49:11;;;;;;;11.88;5.93;;;;;;;;;;5045267;28;20021;-69
2022/03/14 03:51:36;;;;;;;13.40;5.97;;;;;;;;;;5051050;28;20028;-70
2022/03/14 03:54:02;;;;;;;10.68;5.25;;;;;;;;;;5049587;28;20013;-69
2022/03/14 03:56:27;;;;;;;11.60;6.10;;;;;;;;;;5050452;28;20103;-69
2022/03/14 03:58:52;;;;;;;11.15;5.45;;;;;;;;;;5031076;28;20009;-69
2022/03/14 04:01:22;;;;;;;3.60;1.95;;;;;;;;;;5049639;28;20029;-69
2022/03/14 04:03:54;;;;;;;18.00;4.63;;;;;;;;;;5050396;28;20013;-69
2022/03/14 04:06:21;;;;;;;6.85;4.03;;;;;;;;;;5050265;28;20051;-69
2022/03/14 04:08:47;;;;;;;10.80;5.85;;;;;;;;;;5048909;28;20020;-69
2022/03/14 04:11:12;;;;;;;9.88;4.70;;;;;;;;;;5049925;28;20488;-69
2022/03/14 04:13:37;;;;;;;6.80;3.08;;;;;;;;;;5049803;28;20021;-69
2022/03/14 04:16:03;;;;;;;12.32;4.82;;;;;;;;;;5049516;28;20074;-69
2022/03/14 04:18:28;;;;;;;6.15;3.72;;;;;;;;;;5049178;28;20119;-69
2022/03/14 04:20:54;;;;;;;11.77;5.80;;;;;;;;;;5048775;28;20071;-69
2022/03/14 04:23:19;;;;;;;5.47;2.60;;;;;;;;;;5049271;28;20267;-69
2022/03/14 04:25:45;;;;;;;5.45;2.90;;;;;;;;;;5031067;28;20079;-69
2022/03/14 04:28:11;;;;;;;12.27;3.63;;;;;;;;;;5049330;28;20539;-69
2022/03/14 04:30:36;;;;;;;6.35;2.88;;;;;;;;;;5048984;28;20028;-69
2022/03/14 04:33:02;;;;;;;15.73;6.17;;;;;;;;;;5048648;28;20021;-69
2022/03/14 04:35:27;;;;;;;14.45;6.90;;;;;;;;;;5049570;28;20768;-69
2022/03/14 04:37:52;;;;;;;15.48;5.97;;;;;;;;;;5049652;28;20028;-69
2022/03/14 04:40:17;;;;;;;14.35;7.80;;;;;;;;;;5048959;28;20056;-69
2022/03/14 04:42:43;;;;;;;13.60;7.82;;;;;;;;;;5050722;28;20025;-69
2022/03/14 04:45:09;;;;;;;19.27;9.30;;;;;;;;;;5049686;28;20111;-69
2022/03/14 04:47:34;;;;;;;12.00;5.22;;;;;;;;;;5049411;28;20021;-69
2022/03/14 04:50:00;;;;;;;15.07;6.82;;;;;;;;;;5049746;28;20021;-69
2022/03/14 04:52:27;;;;;;;19.05;9.10;;;;;;;;;;5049530;28;20543;-69
2022/03/14 04:54:52;;;;;;;20.58;9.98;;;;;;;;;;5032770;28;20018;-69
2022/03/14 04:57:17;;;;;;;16.17;7.93;;;;;;;;;;5044719;28;20075;-69
2022/03/14 04:59:43;;;;;;;18.75;10.05;;;;;;;;;;5049327;28;20025;-69
2022/03/14 05:02:08;;;;;;;17.93;8.00;;;;;;;;;;5049226;28;20025;-69
2022/03/14 05:04:34;;;;;;;9.27;4.13;;;;;;;;;;5049248;28;20754;-69
2022/03/14 05:06:59;;;;;;;23.45;11.15;;;;;;;;;;5047847;28;20048;-69
2022/03/14 05:09:25;;;;;;;29.10;13.60;;;;;;;;;;5049351;28;20311;-69
2022/03/14 05:11:50;;;;;;;24.42;13.48;;;;;;;;;;5049573;28;20270;-69
2022/03/14 05:14:15;;;;;;;25.67;13.47;;;;;;;;;;5049272;28;20021;-69
2022/03/14 05:16:41;;;;;;;13.00;5.90;;;;;;;;;;5048778;28;20294;-69
2022/03/14 05:19:06;;;;;;;14.52;7.22;;;;;;;;;;5049222;28;20021;-69
2022/03/14 05:21:33;;;;;;;25.02;12.98;;;;;;;;;;5045261;28;20082;-69
2022/03/14 05:23:58;;;;;;;26.17;11.93;;;;;;;;;;5047175;28;20480;-69
2022/03/14 05:26:23;;;;;;;25.30;14.02;;;;;;;;;;5047060;28;20032;-69
2022/03/14 05:28:49;;;;;;;30.10;15.03;;;;;;;;;;5046876;28;20029;-69
2022/03/14 05:31:14;;;;;;;10.30;3.85;;;;;;;;;;5046877;28;20441;-68
2022/03/14 05:33:39;;;;;;;28.25;13.07;;;;;;;;;;5047061;28;20029;-69
2022/03/14 05:36:04;;;;;;;24.48;12.55;;;;;;;;;;5047912;28;20033;-68
2022/03/14 05:38:30;;;;;;;27.08;14.70;;;;;;;;;;5050882;28;20515;-69
2022/03/14 05:40:55;;;;;;;28.58;13.70;;;;;;;;;;5049570;28;20017;-69
2022/03/14 05:43:21;;;;;;;25.23;13.60;;;;;;;;;;5050201;28;20477;-69
2022/03/14 05:45:46;;;;;;;21.15;11.38;;;;;;;;;;5050176;28;20535;-69
2022/03/14 05:48:11;;;;;;;21.20;10.80;;;;;;;;;;5050650;28;20099;-69
2022/03/14 05:50:37;;;;;;;20.25;10.65;;;;;;;;;;5051972;28;20162;-69
2022/03/14 05:53:02;;;;;;;12.77;7.23;;;;;;;;;;5050202;28;20100;-69
2022/03/14 05:55:27;;;;;;;16.80;9.40;;;;;;;;;;5049205;28;20629;-69
2022/03/14 05:57:53;;;;;;;14.30;7.78;;;;;;;;;;5048132;28;20052;-68
2022/03/14 06:00:20;;;;;;;17.33;7.50;;;;;;;;;;5050902;28;20103;-68
2022/03/14 06:02:46;;;;;;;13.57;7.45;;;;;;;;;;5051129;28;20024;-68
2022/03/14 06:05:12;;;;;;;15.68;7.32;;;;;;;;;;5048859;28;20040;-68
2022/03/14 06:07:37;;;;;;;14.85;6.68;;;;;;;;;;5046538;28;20102;-68
2022/03/14 06:10:02;;;;;;;13.07;6.50;;;;;;;;;;5048368;28;20523;-68
2022/03/14 06:12:29;;;;;;;10.43;6.00;;;;;;;;;;5049183;28;20033;-68
2022/03/14 06:14:55;;;;;;;14.55;6.15;;;;;;;;;;5047369;28;20040;-68
2022/03/14 06:17:20;;;;;;;13.40;5.95;;;;;;;;;;5048112;28;20033;-68
2022/03/14 06:19:45;;;;;;;14.52;5.28;;;;;;;;;;5050094;28;20033;-68
2022/03/14 06:22:10;;;;;;;10.00;4.57;;;;;;;;;;5051881;28;20080;-68
2022/03/14 06:24:36;;;;;;;11.18;5.97;;;;;;;;;;5051308;28;20091;-68
2022/03/14 06:27:02;;;;;;;7.50;4.00;;;;;;;;;;5050668;28;20021;-68
2022/03/14 06:29:30;;;;;;;11.40;4.20;;;;;;;;;;5050641;28;20309;-68
2022/03/14 06:32:31;;;;;;;;;;;;;;;;;;;;;
2022/03/14 06:38:45;;;;;;;9.07;4.43;;;;;;;;;;4964301;28;20035;-86
2022/03/14 06:48:39;;;;;;;;;;;;;;;;;;;;;
2022/03/14 06:57:47;;;;;;;;;;;;;;;;;;;;;
2022/03/14 07:00:13;;;;;;;10.07;4.65;;;;;;;;;;5057219;23;20058;-67
2022/03/14 07:02:39;;;;;;;8.82;3.67;;;;;;;;;;5050768;28;20099;-67
2022/03/14 07:05:05;;;;;;;8.38;3.60;;;;;;;;;;5050518;28;20021;-67
2022/03/14 07:07:30;;;;;;;10.80;3.97;;;;;;;;;;5050308;28;20024;-67
2022/03/14 07:09:55;;;;;;;5.95;3.08;;;;;;;;;;5050256;28;20020;-67
2022/03/14 07:12:21;;;;;;;7.43;3.63;;;;;;;;;;5050325;28;20099;-67
2022/03/14 07:14:46;;;;;;;7.93;2.97;;;;;;;;;;5050477;28;21919;-68
2022/03/14 07:17:11;;;;;;;7.53;4.00;;;;;;;;;;5050351;28;20275;-66
2022/03/14 07:19:36;;;;;;;10.15;3.25;;;;;;;;;;5050020;28;20275;-67
2022/03/14 07:22:03;;;;;;;6.75;3.60;;;;;;;;;;5049570;28;20025;-68
2022/03/14 07:24:28;;;;;;;6.35;2.95;;;;;;;;;;5047696;28;20025;-67
2022/03/14 07:26:53;;;;;;;7.63;3.28;;;;;;;;;;5053083;28;20035;-67
2022/03/14 07:29:19;;;;;;;9.37;3.30;;;;;;;;;;5048831;28;20021;-66
2022/03/14 07:31:44;;;;;;;10.27;3.83;;;;;;;;;;5049773;28;20281;-66
2022/03/14 07:34:09;;;;;;;15.00;3.10;;;;;;;;;;5048587;28;20759;-67
2022/03/14 07:36:35;;;;;;;8.93;3.80;;;;;;;;;;5047146;28;20052;-66
2022/03/14 07:39:01;;;;;;;8.10;2.75;;;;;;;;;;5049948;28;20477;-66
2022/03/14 07:41:26;;;;;;;10.98;3.45;;;;;;;;;;5049380;28;20020;-66
2022/03/14 07:43:51;;;;;;;7.63;3.53;;;;;;;;;;5049467;28;20602;-67
2022/03/14 07:46:17;;;;;;;7.70;3.17;;;;;;;;;;5048061;28;20036;-66
2022/03/14 07:48:43;;;;;;;10.65;3.67;;;;;;;;;;5046694;28;20271;-66
2022/03/14 07:51:08;;;;;;;12.33;3.13;;;;;;;;;;5048607;28;20047;-67
2022/03/14 07:53:33;;;;;;;12.23;4.30;;;;;;;;;;5048903;28;20336;-67
2022/03/14 07:55:58;;;;;;;13.65;3.20;;;;;;;;;;5047422;28;20374;-66
2022/03/14 07:58:24;;;;;;;11.82;3.38;;;;;;;;;;5048195;28;20403;-67
2022/03/14 08:00:49;;;;;;;9.25;3.78;;;;;;;;;;5049214;28;20047;-66
2022/03/14 08:03:20;;;;;;;14.45;3.88;;;;;;;;;;5048344;28;20021;-66
2022/03/14 08:05:46;;;;;;;11.60;3.88;;;;;;;;;;5048117;28;20024;-66
2022/03/14 08:08:11;;;;;;;11.52;3.75;;;;;;;;;;5031711;28;20017;-67
2022/03/14 08:10:39;;;;;;;11.98;3.72;;;;;;;;;;5050163;28;20063;-67
2022/03/14 08:13:04;;;;;;;11.75;4.25;;;;;;;;;;5038580;28;20104;-67
2022/03/14 08:15:30;;;;;;;12.50;3.47;;;;;;;;;;5046111;28;20107;-68
2022/03/14 08:17:59;;;;;;;11.18;3.42;;;;;;;;;;5046606;28;20088;-66
2022/03/14 08:20:26;;;;;;;17.13;4.55;;;;;;;;;;5047024;28;20025;-66
2022/03/14 08:22:53;;;;;;;12.68;4.18;;;;;;;;;;5048854;28;20024;-66
2022/03/14 08:25:18;;;;;;;10.02;4.13;;;;;;;;;;5048753;28;20020;-66
2022/03/14 08:27:43;;;;;;;8.65;3.85;;;;;;;;;;5050573;28;20567;-66
2022/03/14 08:30:08;;;;;;;12.43;2.97;;;;;;;;;;5048985;28;20443;-66
2022/03/14 08:32:34;;;;;;;14.75;4.00;;;;;;;;;;5049930;28;20282;-66
2022/03/14 08:35:07;;;;;;;11.77;4.25;;;;;;;;;;5049778;28;20563;-67
2022/03/14 08:37:32;;;;;;;11.45;3.70;;;;;;;;;;5050425;28;20063;-66
2022/03/14 08:39:57;;;;;;;15.93;4.80;;;;;;;;;;5049238;28;20048;-66
2022/03/14 08:42:23;;;;;;;13.30;3.80;;;;;;;;;;5050012;28;20031;-66
2022/03/14 08:44:48;;;;;;;11.98;4.57;;;;;;;;;;5049502;28;20307;-67
2022/03/14 08:47:13;;;;;;;12.90;3.87;;;;;;;;;;5049948;28;20594;-67
2022/03/14 08:49:38;;;;;;;10.55;3.70;;;;;;;;;;5049489;28;20276;-67
2022/03/14 08:52:04;;;;;;;4.03;1.57;;;;;;;;;;5049496;28;20017;-67
2022/03/14 08:54:29;;;;;;;10.77;2.95;;;;;;;;;;5049629;28;20781;-66
2022/03/14 08:56:54;;;;;;;15.13;3.67;;;;;;;;;;5049685;28;20104;-66
2022/03/14 08:59:19;;;;;;;9.00;2.87;;;;;;;;;;5030600;28;20029;-66
2022/03/14 09:01:44;;;;;;;13.23;3.47;;;;;;;;;;5049115;28;20755;-66
2022/03/14 09:04:10;;;;;;;12.43;3.60;;;;;;;;;;5048240;28;20025;-67
2022/03/14 09:06:35;;;;;;;6.47;2.20;;;;;;;;;;5049940;28;20293;-67
2022/03/14 09:09:01;;;;;;;7.20;2.97;;;;;;;;;;5044511;28;20857;-67
2022/03/14 09:11:26;;;;;;;13.52;3.38;;;;;;;;;;5051413;28;20074;-67
2022/03/14 09:13:52;;;;;;;7.53;2.78;;;;;;;;;;5052223;28;20051;-66
2022/03/14 09:16:17;;;;;;;16.50;3.25;;;;;;;;;;5053188;28;20032;-66
2022/03/14 09:18:43;;;;;;;15.55;3.40;;;;;;;;;;5052421;28;20027;-66
2022/03/14 09:21:08;;;;;;;5.70;2.72;;;;;;;;;;5058336;28;20031;-66
2022/03/14 09:23:33;;;;;;;7.77;4.17;;;;;;;;;;5052765;28;20404;-66
2022/03/14 09:25:59;;;;;;;10.48;3.47;;;;;;;;;;5052178;28;20302;-67
2022/03/14 09:28:25;;;;;;;12.23;3.95;;;;;;;;;;5051226;28;20079;-66
2022/03/14 09:30:51;;;;;;;8.35;4.30;;;;;;;;;;5052364;28;20021;-67
2022/03/14 09:33:16;;;;;;;7.00;3.45;;;;;;;;;;5050705;28;20090;-66
2022/03/14 09:35:41;;;;;;;11.82;3.90;;;;;;;;;;5051406;28;20158;-67
2022/03/14 09:38:06;;;;;;;11.75;4.25;;;;;;;;;;5050454;28;20374;-66
2022/03/14 09:40:32;;;;;;;10.10;4.25;;;;;;;;;;5051844;28;20017;-67
2022/03/14 09:42:59;;;;;;;11.68;6.00;;;;;;;;;;5035100;28;20020;-66
2022/03/14 09:45:24;;;;;;;9.43;4.68;;;;;;;;;;5047725;28;20381;-66
2022/03/14 09:47:51;;;;;;;14.93;3.33;;;;;;;;;;5051624;28;20033;-66
2022/03/14 09:50:27;;;;;;;8.32;3.88;;;;;;;;;;5050988;28;20036;-66
2022/03/14 09:52:53;;;;;;;8.23;4.18;;;;;;;;;;5052462;28;20036;-66
2022/03/14 09:55:19;;;;;;;8.20;4.18;;;;;;;;;;5051307;28;20029;-67
2022/03/14 09:57:45;;;;;;;18.67;6.40;;;;;;;;;;5052388;28;20445;-66
2022/03/14 10:00:12;;;;;;;17.83;9.07;;;;;;;;;;5051316;28;20107;-66
2022/03/14 10:02:39;;;;;;;15.60;7.82;;;;;;;;;;5050540;28;20021;-67
2022/03/14 10:05:07;;;;;;;15.55;4.32;;;;;;;;;;5050842;28;20028;-66
2022/03/14 10:07:35;;;;;;;14.00;6.45;;;;;;;;;;5051556;28;20127;-67
2022/03/14 10:10:00;;;;;;;15.40;6.78;;;;;;;;;;5051160;28;20029;-67
2022/03/14 10:12:26;;;;;;;13.93;6.55;;;;;;;;;;5050989;28;20025;-66
2022/03/14 10:14:51;;;;;;;11.10;5.45;;;;;;;;;;5051560;28;20056;-66
2022/03/14 10:17:17;;;;;;;11.10;5.07;;;;;;;;;;5048502;28;20032;-66
2022/03/14 10:19:52;;;;;;;14.20;5.50;;;;;;;;;;5048323;28;20548;-66
2022/03/14 10:22:19;;;;;;;9.73;4.70;;;;;;;;;;5037140;28;20029;-66
2022/03/14 10:24:46;;;;;;;11.55;5.97;;;;;;;;;;5050705;28;20075;-66
2022/03/14 10:27:12;;;;;;;15.00;6.43;;;;;;;;;;5051361;28;20035;-66
2022/03/14 10:29:37;;;;;;;17.23;6.32;;;;;;;;;;5050741;28;20027;-65
2022/03/14 10:32:13;;;;;;;11.55;5.57;;;;;;;;;;5051463;28;20021;-65
2022/03/14 10:34:49;;;;;;;16.25;9.75;;;;;;;;;;5050570;28;20497;-65
2022/03/14 10:37:15;;;;;;;12.27;5.22;;;;;;;;;;5050351;28;20020;-66
2022/03/14 10:39:40;;;;;;;15.40;8.90;;;;;;;;;;5051057;28;20017;-65
2022/03/14 10:42:07;;;;;;;27.13;9.30;;;;;;;;;;5051463;28;20051;-66
2022/03/14 10:44:33;;;;;;;25.50;13.35;;;;;;;;;;5051570;28;20350;-65
2022/03/14 10:46:59;;;;;;;28.23;13.20;;;;;;;;;;5051547;28;20099;-65
2022/03/14 10:49:31;;;;;;;21.75;9.50;;;;;;;;;;5050493;28;20542;-65
2022/03/14 10:52:00;;;;;;;22.15;11.45;;;;;;;;;;5051420;28;20029;-65
2022/03/14 10:54:25;;;;;;;22.50;9.68;;;;;;;;;;5032978;28;20062;-65
2022/03/14 10:57:00;;;;;;;15.43;6.53;;;;;;;;;;5051310;28;20029;-65
2022/03/14 10:59:36;;;;;;;13.27;6.05;;;;;;;;;;5050892;28;20025;-66
2022/03/14 11:02:02;;;;;;;16.63;6.28;;;;;;;;;;5051261;28;20416;-65
2022/03/14 11:04:27;;;;;;;11.40;5.30;;;;;;;;;;5050982;28;20520;-65
2022/03/14 11:06:59;;;;;;;14.82;4.35;;;;;;;;;;5051403;28;20025;-65
2022/03/14 11:09:36;;;;;;;10.40;4.10;;;;;;;;;;5050386;28;20017;-66
2022/03/14 11:12:05;;;;;;;10.13;3.72;;;;;;;;;;5051381;28;20043;-65
2022/03/14 11:14:30;;;;;;;7.00;3.97;;;;;;;;;;5050820;28;20017;-65
2022/03/14 11:17:08;;;;;;;6.80;3.37;;;;;;;;;;5050549;28;20290;-66
2022/03/14 11:19:33;;;;;;;10.25;3.78;;;;;;;;;;5050816;28;20256;-66
2022/03/14 11:21:58;;;;;;;11.88;5.97;;;;;;;;;;5051261;28;20035;-65
2022/03/14 11:24:23;;;;;;;12.32;4.03;;;;;;;;;;5050427;28;20013;-65
2022/03/14 11:26:49;;;;;;;10.90;4.10;;;;;;;;;;5051138;28;20033;-65
2022/03/14 11:29:15;;;;;;;6.35;3.03;;;;;;;;;;5050642;28;20899;-66
2022/03/14 11:31:45;;;;;;;10.50;3.50;;;;;;;;;;5051244;28;20040;-65
2022/03/14 11:34:11;;;;;;;7.68;3.55;;;;;;;;;;5049870;28;20071;-65
2022/03/14 11:36:37;;;;;;;12.02;4.90;;;;;;;;;;5050619;28;20025;-65
2022/03/14 11:39:02;;;;;;;9.75;3.38;;;;;;;;;;5050745;28;20016;-66
2022/03/14 11:41:27;;;;;;;14.55;5.05;;;;;;;;;;5050757;28;20021;-66
2022/03/14 11:43:53;;;;;;;6.63;3.08;;;;;;;;;;5032471;28;20637;-65
2022/03/14 11:46:18;;;;;;;6.25;2.83;;;;;;;;;;5049163;28;20029;-66
2022/03/14 11:48:44;;;;;;;13.00;3.67;;;;;;;;;;5050408;28;20009;-66
2022/03/14 11:51:11;;;;;;;11.45;5.07;;;;;;;;;;5049527;28;20055;-66
2022/03/14 11:53:46;;;;;;;7.05;3.42;;;;;;;;;;5050362;28;20021;-66
2022/03/14 11:56:12;;;;;;;3.67;2.58;;;;;;;;;;5044438;28;20381;-66
2022/03/14 11:58:38;;;;;;;5.47;2.65;;;;;;;;;;5050372;28;20021;-66
2022/03/14 12:01:16;;;;;;;4.25;1.30;;;;;;;;;;5049290;28;20024;-66
2022/03/14 12:03:42;;;;;;;9.27;2.42;;;;;;;;;;5044105;28;20013;-66
2022/03/14 12:06:08;;;;;;;6.70;3.00;;;;;;;;;;5049263;28;20024;-66
2022/03/14 12:08:36;;;;;;;7.68;3.22;;;;;;;;;;5048562;28;20024;-66
2022/03/14 12:11:20;;;;;;;8.52;3.22;;;;;;;;;;5032197;28;20145;-66
2022/03/14 12:13:46;;;;;;;10.80;3.17;;;;;;;;;;5049568;28;20037;-66
2022/03/14 12:16:30;;;;;;;6.70;1.98;;;;;;;;;;5049478;28;20449;-66
2022/03/14 12:18:58;;;;;;;7.35;2.78;;;;;;;;;;5049643;28;20028;-65
2022/03/14 12:21:44;;;;;;;6.45;2.50;;;;;;;;;;5050247;28;20017;-66
2022/03/14 12:24:17;;;;;;;7.15;2.72;;;;;;;;;;5048022;28;20060;-66
2022/03/14 12:26:43;;;;;;;8.65;2.40;;;;;;;;;;5031592;28;20021;-66
2022/03/14 12:29:27;;;;;;;6.53;2.63;;;;;;;;;;5049765;28;20036;-66
2022/03/14 12:32:15;;;;;;;10.77;0.70;;;;;;;;;;5072312;23;20123;-67
2022/03/14 12:34:41;;;;;;;3.15;1.60;;;;;;;;;;5034671;28;20114;-68
2022/03/14 12:37:23;;;;;;;3.20;1.23;;;;;;;;;;5049180;28;20021;-68
2022/03/14 12:39:48;;;;;;;8.90;1.42;;;;;;;;;;5043967;28;20028;-68
2022/03/14 12:42:20;;;;;;;5.73;1.37;;;;;;;;;;5048831;28;20013;-70
2022/03/14 12:45:06;;;;;;;2.75;1.08;;;;;;;;;;5047726;28;20313;-70
2022/03/14 12:47:31;;;;;;;6.53;1.45;;;;;;;;;;5050820;28;20111;-70
2022/03/14 12:49:56;;;;;;;4.80;1.65;;;;;;;;;;5052748;28;20009;-70
2022/03/14 12:52:21;;;;;;;5.68;1.70;;;;;;;;;;5052983;28;20495;-68
2022/03/14 12:54:47;;;;;;;2.03;0.82;;;;;;;;;;5051564;28;20025;-69
2022/03/14 12:57:13;;;;;;;7.80;1.67;;;;;;;;;;5052906;28;20060;-69
2022/03/14 12:59:44;;;;;;;6.00;2.63;;;;;;;;;;5053106;28;20025;-69
2022/03/14 13:02:25;;;;;;;9.15;2.00;;;;;;;;;;5053368;28;20013;-69
2022/03/14 13:04:58;;;;;;;12.27;2.42;;;;;;;;;;5047422;28;20025;-69
2022/03/14 13:07:23;;;;;;;13.20;2.55;;;;;;;;;;5053064;28;20469;-69
2022/03/14 13:09:52;;;;;;;8.70;2.10;;;;;;;;;;5035144;28;20013;-69
2022/03/14 13:12:17;;;;;;;8.57;3.20;;;;;;;;;;5050880;28;20032;-69
2022/03/14 13:14:43;;;;;;;5.03;2.08;;;;;;;;;;5053695;28;20020;-70
2022/03/14 13:17:09;;;;;;;4.88;3.00;;;;;;;;;;5038185;28;20036;-70
2022/03/14 13:19:35;;;;;;;5.45;2.63;;;;;;;;;;5053204;28;20013;-70
2022/03/14 13:22:10;;;;;;;4.70;2.17;;;;;;;;;;5052905;28;20013;-69
2022/03/14 13:24:35;;;;;;;10.85;2.97;;;;;;;;;;5051862;28;20425;-70
2022/03/14 13:27:00;;;;;;;5.47;2.45;;;;;;;;;;5052343;28;20067;-70
2022/03/14 13:29:31;;;;;;;8.83;3.53;;;;;;;;;;5054022;28;20103;-70
2022/03/14 13:31:59;;;;;;;11.88;4.10;;;;;;;;;;5053857;28;20275;-70
2022/03/14 13:34:26;;;;;;;17.67;2.90;;;;;;;;;;5054393;28;20060;-70
2022/03/14 13:36:53;;;;;;;11.88;2.95;;;;;;;;;;5052449;28;20024;-70
2022/03/14 13:39:20;;;;;;;8.80;2.33;;;;;;;;;;5052854;28;20044;-70
2022/03/14 13:41:45;;;;;;;7.13;3.15;;;;;;;;;;5069227;28;20035;-70
2022/03/14 13:44:21;;;;;;;11.23;2.85;;;;;;;;;;5051957;28;20028;-69
2022/03/14 13:46:47;;;;;;;6.40;2.50;;;;;;;;;;5052891;28;20021;-69
2022/03/14 13:49:13;;;;;;;12.02;2.92;;;;;;;;;;5052522;28;20028;-70
2022/03/14 13:52:07;;;;;;;9.02;2.78;;;;;;;;;;5035805;28;20028;-70
2022/03/14 13:54:34;;;;;;;5.50;2.13;;;;;;;;;;5039614;28;20094;-70
2022/03/14 13:57:03;;;;;;;20.92;3.30;;;;;;;;;;5053394;28;20021;-70
2022/03/14 13:59:31;;;;;;;10.07;2.50;;;;;;;;;;5052058;28;20146;-70
2022/03/14 14:02:04;;;;;;;8.32;2.40;;;;;;;;;;5050847;28;20551;-70
2022/03/14 14:04:30;;;;;;;8.82;3.13;;;;;;;;;;5048563;28;20029;-69
2022/03/14 14:06:56;;;;;;;8.25;3.42;;;;;;;;;;5054177;28;20075;-69
2022/03/14 14:09:29;;;;;;;10.98;3.47;;;;;;;;;;5054578;28;20390;-69
2022/03/14 14:12:05;;;;;;;9.45;3.20;;;;;;;;;;5052093;28;20031;-69
2022/03/14 14:14:31;;;;;;;7.07;3.22;;;;;;;;;;5053268;28;20024;-68
2022/03/14 14:17:35;;;;;;;9.32;3.25;;;;;;;;;;5052816;28;20031;-69
2022/03/14 14:20:08;;;;;;;10.95;3.22;;;;;;;;;;4992018;28;20022;-68
2022/03/14 14:22:50;;;;;;;7.32;2.90;;;;;;;;;;4990946;28;20030;-71
2022/03/14 14:25:15;;;;;;;5.57;2.63;;;;;;;;;;5029372;28;20049;-69
2022/03/14 14:28:05;;;;;;;8.20;3.10;;;;;;;;;;5052614;28;20043;-68
2022/03/14 14:30:43;;;;;;;7.45;3.55;;;;;;;;;;5053558;28;20037;-68
2022/03/14 14:33:12;;;;;;;7.72;3.22;;;;;;;;;;5052413;28;20032;-69
2022/03/14 14:35:38;;;;;;;11.60;3.08;;;;;;;;;;5044707;28;20021;-69
2022/03/14 14:38:04;;;;;;;10.82;2.97;;;;;;;;;;5052492;28;20079;-69
2022/03/14 14:40:29;;;;;;;11.40;3.47;;;;;;;;;;5052055;28;20392;-70
2022/03/14 14:42:55;;;;;;;13.15;3.20;;;;;;;;;;5053329;28;20489;-70
2022/03/14 14:45:21;;;;;;;13.77;2.80;;;;;;;;;;5034897;28;20476;-70
2022/03/14 14:47:46;;;;;;;10.85;3.28;;;;;;;;;;5034617;28;20071;-70
2022/03/14 14:50:11;;;;;;;13.60;3.08;;;;;;;;;;5052756;28;20075;-70
2022/03/14 14:52:36;;;;;;;10.63;3.63;;;;;;;;;;5052027;28;20021;-70
2022/03/14 14:55:04;;;;;;;8.98;3.47;;;;;;;;;;5051345;28;20262;-70